createdAt,value
2023-04-19T00:02:13.365Z,12.75
2023-04-19T00:08:56.311Z,12.52
2023-04-19T00:15:38.786Z,13.00
2023-04-19T00:22:21.114Z,12.35
2023-04-19T00:29:03.441Z,13.07
2023-04-19T00:35:45.920Z,13.88
2023-04-19T00:42:29.050Z,16.05
2023-04-19T00:49:11.377Z,15.25
2023-04-19T00:55:57.418Z,15.82
2023-04-19T01:02:40.287Z,16.92
2023-04-19T01:09:22.838Z,16.08
2023-04-19T01:16:06.682Z,20.48
2023-04-19T01:22:49.050Z,16.23
2023-04-19T01:29:31.337Z,15.77
2023-04-19T01:36:13.633Z,21.00
2023-04-19T01:42:57.285Z,15.98
2023-04-19T01:49:41.233Z,15.68
2023-04-19T01:56:24.286Z,16.08
2023-04-19T02:03:06.813Z,17.23
2023-04-19T02:09:49.236Z,16.25
2023-04-19T02:16:33.763Z,17.30
2023-04-19T02:23:17.608Z,16.17
2023-04-19T02:29:59.954Z,15.45
2023-04-19T02:36:42.295Z,16.58
2023-04-19T02:43:24.959Z,16.77
2023-04-19T02:50:07.806Z,17.50
2023-04-19T02:56:54.534Z,17.38
2023-04-19T03:03:37.115Z,18.52
2023-04-19T03:10:19.669Z,18.88
2023-04-19T03:17:02.550Z,16.48
2023-04-19T03:23:45.713Z,17.95
2023-04-19T03:30:29.562Z,20.00
2023-04-19T03:37:12.151Z,18.10
2023-04-19T03:43:54.987Z,18.33
2023-04-19T03:50:39.713Z,20.13
2023-04-19T03:57:22.140Z,21.02
2023-04-19T04:04:05.628Z,19.45
2023-04-19T04:10:48.239Z,21.10
2023-04-19T04:17:30.988Z,20.60
2023-04-19T04:24:13.855Z,22.30
2023-04-19T04:31:13.171Z,21.92
2023-04-19T04:37:56.747Z,20.73
2023-04-19T04:44:41.423Z,20.92
2023-04-19T04:51:26.131Z,20.58
2023-04-19T04:58:10.563Z,17.23
2023-04-19T05:05:11.299Z,17.20
2023-04-19T05:11:54.401Z,18.83
2023-04-19T05:18:37.234Z,18.40
2023-04-19T05:25:21.365Z,20.50
2023-04-19T05:32:04.357Z,18.15
2023-04-19T05:38:56.118Z,19.38
2023-04-19T05:45:38.815Z,18.92
2023-04-19T05:52:22.294Z,18.70
2023-04-19T05:59:08.580Z,15.05
2023-04-19T06:05:51.212Z,16.23
2023-04-19T06:12:34.003Z,17.17
2023-04-19T06:19:16.688Z,16.15
2023-04-19T06:25:58.995Z,19.73
2023-04-19T06:32:41.420Z,14.55
2023-04-19T06:39:23.775Z,14.75
2023-04-19T06:46:06.755Z,14.48
2023-04-19T06:52:49.266Z,15.43
2023-04-19T06:59:32.185Z,14.60
2023-04-19T07:06:14.533Z,14.95
2023-04-19T07:12:56.849Z,12.02
2023-04-19T07:19:39.120Z,12.48
2023-04-19T07:26:21.440Z,13.07
2023-04-19T07:33:04.983Z,13.32
2023-04-19T07:39:47.338Z,13.10
2023-04-19T07:46:30.140Z,13.95
2023-04-19T07:53:12.623Z,11.90
2023-04-19T07:59:58.000Z,9.55
2023-04-19T08:06:40.383Z,9.02
2023-04-19T08:13:22.831Z,9.45
2023-04-19T08:20:06.880Z,9.82
2023-04-19T08:26:53.657Z,10.00
2023-04-19T08:33:36.323Z,10.15
2023-04-19T08:40:18.799Z,9.45
2023-04-19T08:47:01.396Z,9.32
2023-04-19T08:53:44.619Z,9.75
2023-04-19T09:00:27.065Z,10.38
2023-04-19T09:07:22.188Z,11.10
2023-04-19T09:14:09.042Z,13.63
2023-04-19T09:20:57.152Z,10.88
2023-04-19T09:27:40.633Z,12.13
2023-04-19T09:34:24.008Z,11.55
2023-04-19T09:41:08.347Z,11.45
2023-04-19T09:48:05.889Z,12.55
2023-04-19T09:54:48.947Z,10.38
2023-04-19T10:01:35.788Z,9.50
2023-04-19T10:08:18.652Z,9.10
2023-04-19T10:15:01.073Z,8.45
2023-04-19T10:21:47.118Z,9.20
2023-04-19T10:28:30.930Z,10.07
2023-04-19T10:35:22.452Z,10.27
2023-04-19T10:42:05.163Z,10.60
2023-04-19T10:48:58.687Z,12.38
2023-04-19T10:55:51.183Z,10.85
2023-04-19T11:02:33.749Z,11.07
2023-04-19T11:09:52.657Z,11.52
2023-04-19T11:16:45.679Z,10.73
2023-04-19T11:23:28.598Z,12.45
2023-04-19T11:30:16.763Z,12.52
2023-04-19T11:36:59.132Z,11.88
2023-04-19T11:43:44.995Z,13.27
2023-04-19T11:50:44.564Z,15.35
2023-04-19T11:57:28.777Z,14.60
2023-04-19T12:04:11.896Z,15.15
2023-04-19T12:10:58.746Z,20.10
2023-04-19T12:18:01.872Z,17.70
2023-04-19T12:24:44.424Z,19.58
2023-04-19T12:31:27.246Z,17.92
2023-04-19T12:38:09.591Z,22.15
2023-04-19T12:44:52.123Z,21.13
2023-04-19T12:51:36.013Z,17.92
2023-04-19T12:58:19.056Z,18.95
2023-04-19T13:05:01.910Z,15.48
2023-04-19T13:11:44.631Z,15.20
2023-04-19T13:18:27.144Z,15.13
2023-04-19T13:25:09.624Z,14.75
2023-04-19T13:31:51.912Z,13.48
2023-04-19T13:38:34.264Z,12.55
2023-04-19T13:45:16.593Z,13.70
2023-04-19T13:51:58.922Z,11.82
2023-04-19T13:58:41.257Z,10.65
2023-04-19T14:05:25.501Z,11.23
2023-04-19T14:12:09.237Z,10.75
2023-04-19T14:18:52.307Z,10.45
2023-04-19T14:25:36.678Z,12.15
2023-04-19T14:32:24.898Z,9.35
2023-04-19T14:39:08.847Z,8.75
2023-04-19T14:45:51.785Z,10.15
2023-04-19T14:52:34.683Z,12.57
2023-04-19T14:59:17.125Z,10.70
2023-04-19T15:05:59.898Z,9.93
2023-04-19T15:12:42.313Z,10.05
2023-04-19T15:19:24.667Z,10.88
2023-04-19T15:26:06.987Z,10.82
2023-04-19T15:32:49.319Z,10.07
2023-04-19T15:39:31.740Z,13.80
2023-04-19T15:46:14.635Z,11.63
2023-04-19T15:52:57.182Z,10.65
2023-04-19T15:59:39.463Z,10.68
2023-04-19T16:06:23.029Z,11.18
2023-04-19T16:13:06.021Z,14.40
2023-04-19T16:19:48.302Z,13.73
2023-04-19T16:26:30.614Z,11.48
2023-04-19T16:33:13.059Z,12.13
2023-04-19T16:39:55.602Z,13.82
2023-04-19T16:46:38.014Z,14.98
2023-04-19T16:53:20.561Z,13.88
2023-04-19T17:00:05.680Z,14.55
2023-04-19T17:06:48.118Z,15.68
2023-04-19T17:13:30.433Z,16.70
2023-04-19T17:20:13.643Z,11.55
2023-04-19T17:26:56.723Z,11.45
2023-04-19T17:33:39.021Z,4.78
2023-04-19T17:40:21.810Z,3.00
2023-04-19T17:47:04.305Z,4.50
2023-04-19T17:53:47.283Z,3.97
2023-04-19T18:00:29.629Z,2.50
2023-04-19T18:07:12.052Z,2.75
2023-04-19T18:13:54.387Z,2.97
2023-04-19T18:20:36.722Z,4.38
2023-04-19T18:27:19.050Z,4.60
2023-04-19T18:34:02.092Z,2.47
2023-04-19T18:40:44.636Z,2.47
2023-04-19T18:47:27.436Z,5.28
2023-04-19T18:54:09.982Z,3.53
2023-04-19T19:00:52.474Z,3.33
2023-04-19T19:07:37.558Z,4.97
2023-04-19T19:14:23.320Z,3.92
2023-04-19T19:21:09.090Z,3.40
2023-04-19T19:34:53.938Z,6.30
2023-04-19T19:42:04.221Z,5.68
2023-04-19T19:48:51.975Z,5.30
2023-04-19T19:55:35.985Z,6.00
2023-04-19T20:02:21.905Z,10.10
2023-04-19T20:09:04.898Z,3.10
2023-04-19T20:15:48.258Z,6.85
2023-04-19T20:22:30.568Z,8.75
2023-04-19T20:29:12.865Z,6.28
2023-04-19T20:36:00.441Z,4.05
2023-04-19T20:42:43.421Z,4.32
2023-04-19T20:49:26.121Z,4.32
2023-04-19T20:56:08.725Z,5.65
2023-04-19T21:02:51.199Z,3.97
2023-04-19T21:09:33.625Z,6.30
2023-04-19T21:16:15.927Z,8.95
2023-04-19T21:22:58.392Z,7.82
2023-04-19T21:29:40.718Z,6.97
2023-04-19T21:36:23.015Z,6.03
2023-04-19T21:43:05.906Z,6.53
2023-04-19T21:49:48.241Z,5.50
2023-04-19T21:56:30.701Z,5.25
2023-04-19T22:03:13.232Z,7.15
2023-04-19T22:09:58.772Z,6.75
2023-04-19T22:16:42.084Z,6.53
2023-04-19T22:23:24.511Z,9.45
2023-04-19T22:30:07.649Z,6.32
2023-04-19T22:36:49.959Z,9.40
2023-04-19T22:43:33.034Z,6.63
2023-04-19T22:50:15.444Z,7.50
2023-04-19T22:56:58.309Z,6.15
2023-04-19T23:03:40.700Z,6.45
2023-04-19T23:10:24.237Z,6.25
2023-04-19T23:17:06.524Z,7.60
2023-04-19T23:23:50.581Z,9.30
2023-04-19T23:30:32.969Z,5.95
2023-04-19T23:37:15.314Z,5.50
2023-04-19T23:43:57.645Z,6.32
2023-04-19T23:50:40.022Z,5.68
2023-04-19T23:57:22.753Z,9.45
